Time;durP1;ratioP1;P1;durP2;ratioP2;P2;SDS_P1;SDS_P2;PMS_P1;PMS_P2;Temp;Humidity;BMP_temperature;BMP_pressure;BME280_temperature;BME280_humidity;BME280_pressure;Samples;Min_cycle;Max_cycle;Signal;HPM_P1;HPM_P2
2023/07/29 00:02:15;;;;;;;;;;;;;;;8.68;100.00;99012.16;5041525;28;20444;-87
2023/07/29 00:04:40;;;;;;;;;;;;;;;8.65;100.00;99002.63;5039942;28;19917;-84
2023/07/29 00:07:05;;;;;;;;;;;;;;;8.62;100.00;98999.28;5040012;28;19917;-83
2023/07/29 00:09:30;;;;;;;;;;;;;;;8.63;100.00;98998.34;5041207;28;19917;-84
2023/07/29 00:11:56;;;;;;;;;;;;;;;8.63;100.00;99000.97;5040683;28;19939;-84
2023/07/29 00:14:21;;;;;;;;;;;;;;;8.58;100.00;98995.06;5040361;28;19968;-84
2023/07/29 00:16:46;;;;;;;;;;;;;;;8.63;100.00;98988.66;5045627;28;19920;-84
2023/07/29 00:19:12;;;;;;;;;;;;;;;8.61;100.00;98995.75;5040670;28;19921;-84
2023/07/29 00:21:38;;;;;;;;;;;;;;;8.55;100.00;98990.78;5045112;28;20257;-85
2023/07/29 00:24:03;;;;;;;;;;;;;;;8.58;100.00;98995.06;5044242;28;19921;-89
2023/07/29 00:26:29;;;;;;;;;;;;;;;8.68;100.00;98991.03;5038251;28;20335;-88
2023/07/29 00:28:54;;;;;;;;;;;;;;;8.74;100.00;98990.75;5038278;28;19921;-85
2023/07/29 05:31:53;;;;;;;;;;;;;;;8.45;100.00;98915.59;5033622;28;20052;-84
2023/07/29 05:34:19;;;;;;;;;;;;;;;8.45;100.00;98926.13;5032761;28;20378;-84
2023/07/29 05:36:44;;;;;;;;;;;;;;;8.39;100.00;98932.53;5034024;28;20431;-83
2023/07/29 05:39:09;;;;;;;;;;;;;;;8.49;100.00;98936.50;5034083;28;19917;-84
2023/07/29 05:41:34;;;;;;;;;;;;;;;8.33;100.00;98935.47;5032672;28;19925;-84
2023/07/29 05:44:00;;;;;;;;;;;;;;;8.33;100.00;98936.31;5031228;28;19971;-83
2023/07/29 05:46:25;;;;;;;;;;;;;;;8.33;100.00;98943.41;5033962;28;20115;-83
2023/07/29 05:48:50;;;;;;;;;;;;;;;8.32;100.00;98944.31;5033768;28;19921;-86
2023/07/29 05:51:15;;;;;;;;;;;;;;;8.35;100.00;98942.38;5033794;28;19956;-84
2023/07/29 05:53:41;;;;;;;;;;;;;;;8.35;100.00;98941.53;5033761;28;19917;-84
2023/07/29 05:56:06;;;;;;;;;;;;;;;8.41;100.00;98953.56;5033859;28;19921;-84
2023/07/29 05:58:31;;;;;;;;;;;;;;;8.41;100.00;98951.81;5032280;28;19921;-83
2023/07/29 06:00:57;;;;;;;;;;;;;;;8.37;100.00;98961.63;5033465;28;19917;-84
2023/07/29 06:03:22;;;;;;;;;;;;;;;8.41;100.00;98957.09;5033705;28;19932;-84
2023/07/29 06:05:48;;;;;;;;;;;;;;;8.37;100.00;98952.88;5027730;28;19928;-84
2023/07/29 06:08:13;;;;;;;;;;;;;;;8.30;100.00;98972.56;5039786;28;20238;-84
2023/07/29 06:10:39;;;;;;;;;;;;;;;8.33;100.00;98969.78;5033450;28;20280;-85
2023/07/29 06:13:04;;;;;;;;;;;;;;;8.37;100.00;98973.97;5032270;28;19925;-84
2023/07/29 06:15:29;;;;;;;;;;;;;;;8.30;100.00;98975.22;5032046;28;20040;-83
2023/07/29 06:17:54;;;;;;;;;;;;;;;8.36;100.00;98974.94;5032002;28;19971;-83
2023/07/29 06:20:20;;;;;;;;;;;;;;;8.39;100.00;98973.91;5031986;28;19917;-84
2023/07/29 06:22:45;;;;;;;;;;;;;;;8.31;100.00;98969.88;5033459;28;19917;-83
2023/07/29 06:25:10;;;;;;;;;;;;;;;8.28;100.00;98974.41;5032731;28;20083;-83
2023/07/29 06:27:35;;;;;;;;;;;;;;;8.25;100.00;98979.81;5033182;28;19917;-87
2023/07/29 06:30:00;;;;;;;;;;;;;;;8.22;100.00;98966.78;5031477;28;20344;-84
2023/07/29 06:32:26;;;;;;;;;;;;;;;8.23;100.00;98957.94;5031137;28;20388;-84
2023/07/29 06:34:53;;;;;;;;;;;;;;;8.33;100.00;98962.72;5031579;28;20007;-85
2023/07/29 06:37:19;;;;;;;;;;;;;;;8.23;100.00;98964.06;5033141;28;20331;-87
2023/07/29 06:39:44;;;;;;;;;;;;;;;8.29;100.00;98969.06;5032828;28;19917;-85
2023/07/29 06:42:09;;;;;;;;;;;;;;;8.25;100.00;98974.53;5032608;28;19940;-85
2023/07/29 06:44:35;;;;;;;;;;;;;;;8.31;100.00;98976.91;5029723;28;19963;-86
2023/07/29 06:47:00;;;;;;;;;;;;;;;8.37;100.00;98980.09;5031389;28;19917;-82
2023/07/29 06:49:25;;;;;;;;;;;;;;;8.48;100.00;98992.84;5031400;28;19940;-84
2023/07/29 06:51:50;;;;;;;;;;;;;;;8.45;100.00;98995.63;5032580;28;19970;-86
2023/07/29 06:54:16;;;;;;;;;;;;;;;8.53;100.00;98996.13;5030818;28;19917;-84
2023/07/29 06:56:41;;;;;;;;;;;;;;;8.40;100.00;99010.81;5031280;28;19945;-84
2023/07/29 06:59:06;;;;;;;;;;;;;;;8.54;100.00;99008.41;5029756;28;20184;-86
2023/07/29 07:01:32;;;;;;;;;;;;;;;8.70;100.00;99002.41;5030472;28;20373;-86
2023/07/29 07:39:20;;;;;;;;;;;;;;;8.60;100.00;98995.84;4974291;28;19932;-85
2023/07/29 07:41:45;;;;;;;;;;;;;;;9.21;100.00;98992.88;5010774;28;19925;-83
2023/07/29 07:44:12;;;;;;;;;;;;;;;10.04;100.00;98994.84;5021171;28;19988;-84
2023/07/29 07:46:37;;;;;;;;;;;;;;;9.07;100.00;98985.63;5003698;28;20008;-83
2023/07/29 07:49:03;;;;;;;;;;;;;;;8.78;100.00;98986.19;5000689;28;20060;-84
2023/07/29 07:51:28;;;;;;;;;;;;;;;8.57;100.00;98990.69;5017622;28;19947;-84
2023/07/29 07:53:53;;;;;;;;;;;;;;;8.54;100.00;98994.34;5003683;28;19938;-83
2023/07/29 07:56:18;;;;;;;;;;;;;;;11.10;100.00;98994.28;5004067;28;19969;-83
2023/07/29 07:58:44;;;;;;;;;;;;;;;14.38;100.00;98983.09;5003310;28;19984;-83
2023/07/29 08:01:09;;;;;;;;;;;;;;;11.30;100.00;98993.16;5003238;28;19925;-83
2023/07/29 08:03:35;;;;;;;;;;;;;;;10.82;100.00;99002.97;5003784;28;19932;-84
2023/07/29 08:06:00;;;;;;;;;;;;;;;10.80;100.00;99010.13;5002356;28;19921;-83
2023/07/29 08:08:26;;;;;;;;;;;;;;;10.77;100.00;99011.19;5002225;28;19922;-84
2023/07/29 08:10:52;;;;;;;;;;;;;;;10.09;100.00;99001.59;5004688;28;20012;-83
2023/07/29 08:13:17;;;;;;;;;;;;;;;9.67;100.00;99012.63;5002497;28;20284;-84
2023/07/29 08:15:45;;;;;;;;;;;;;;;9.74;100.00;99008.72;5003058;28;20020;-84
2023/07/29 08:18:10;;;;;;;;;;;;;;;9.61;100.00;99004.06;5005885;28;20288;-84
2023/07/29 08:20:37;;;;;;;;;;;;;;;9.60;100.00;99018.22;5001050;28;19975;-84
2023/07/29 08:23:02;;;;;;;;;;;;;;;9.49;100.00;99009.97;5007616;28;19917;-84
2023/07/29 08:25:28;;;;;;;;;;;;;;;9.38;100.00;99002.59;5002149;28;19922;-84
2023/07/29 08:27:53;;;;;;;;;;;;;;;9.42;100.00;99011.22;5002560;28;20008;-84
2023/07/29 08:30:19;;;;;;;;;;;;;;;9.31;100.00;99006.47;5017257;28;20071;-84
2023/07/29 08:32:44;;;;;;;;;;;;;;;9.22;100.00;98996.34;5001473;28;19928;-83
2023/07/29 08:35:09;;;;;;;;;;;;;;;9.22;100.00;98994.59;5003063;28;19918;-84
2023/07/29 08:37:35;;;;;;;;;;;;;;;9.17;100.00;98988.66;5003927;28;20399;-83
2023/07/29 08:40:00;;;;;;;;;;;;;;;9.07;100.00;98998.81;5005469;28;19921;-84
2023/07/29 08:42:29;;;;;;;;;;;;;;;8.94;100.00;98996.88;5020816;28;19917;-84
2023/07/29 08:44:55;;;;;;;;;;;;;;;9.09;100.00;98996.09;5020497;28;20027;-86
2023/07/29 08:47:20;;;;;;;;;;;;;;;8.98;100.00;98998.44;5005150;28;20387;-84
2023/07/29 08:49:47;;;;;;;;;;;;;;;8.94;100.00;99008.28;5005687;28;20016;-84
2023/07/29 08:52:13;;;;;;;;;;;;;;;8.97;100.00;99002.88;5003855;28;19925;-84
2023/07/29 08:54:39;;;;;;;;;;;;;;;8.95;100.00;99009.16;5004150;28;19924;-89
2023/07/29 08:57:04;;;;;;;;;;;;;;;8.95;100.00;99014.44;5020567;28;20339;-87
2023/07/29 08:59:30;;;;;;;;;;;;;;;8.83;100.00;99005.31;5003951;28;19972;-83
2023/07/29 09:01:57;;;;;;;;;;;;;;;8.83;100.00;99016.72;5004881;28;20005;-84
2023/07/29 09:04:23;;;;;;;;;;;;;;;8.96;100.00;99016.16;5005756;28;19922;-84
2023/07/29 09:06:50;;;;;;;;;;;;;;;8.79;100.00;99024.88;5003357;28;20396;-85
2023/07/29 09:09:15;;;;;;;;;;;;;;;8.83;100.00;99029.94;5012732;28;20040;-85
2023/07/29 09:11:40;;;;;;;;;;;;;;;8.93;100.00;99038.28;5004941;28;20006;-86
2023/07/29 09:14:05;;;;;;;;;;;;;;;8.80;100.00;99037.16;5020206;28;20387;-85
2023/07/29 09:16:31;;;;;;;;;;;;;;;8.82;100.00;99043.22;5020188;28;19963;-86
2023/07/29 09:19:00;;;;;;;;;;;;;;;8.87;100.00;99047.38;5019767;28;19940;-86
2023/07/29 09:21:26;;;;;;;;;;;;;;;8.80;100.00;99053.00;5003809;28;20344;-85
2023/07/29 09:23:52;;;;;;;;;;;;;;;8.82;100.00;99052.03;5019831;28;19997;-85
2023/07/29 09:26:24;;;;;;;;;;;;;;;8.79;100.00;99049.53;5019953;28;20012;-86
2023/07/29 09:28:54;;;;;;;;;;;;;;;8.72;100.00;99050.72;5004768;28;19921;-86
2023/07/29 09:31:23;;;;;;;;;;;;;;;8.69;100.00;99049.06;5004046;28;20003;-88
2023/07/29 09:33:48;;;;;;;;;;;;;;;8.72;100.00;99048.94;5003121;28;19917;-86
2023/07/29 09:36:14;;;;;;;;;;;;;;;8.78;100.00;99053.09;5003116;28;20499;-86
2023/07/29 09:38:39;;;;;;;;;;;;;;;8.66;100.00;99043.97;5003771;28;19917;-85
2023/07/29 09:41:05;;;;;;;;;;;;;;;8.62;100.00;99060.88;5004230;28;19945;-86
2023/07/29 09:43:31;;;;;;;;;;;;;;;8.78;100.00;99039.88;5019315;28;20458;-86
2023/07/29 09:46:01;;;;;;;;;;;;;;;8.59;100.00;99041.69;5019948;28;19918;-86
2023/07/29 09:48:26;;;;;;;;;;;;;;;8.58;100.00;99045.22;5003561;28;19945;-85
2023/07/29 09:50:51;;;;;;;;;;;;;;;8.56;100.00;99049.75;5019116;28;19926;-86
2023/07/29 09:53:17;;;;;;;;;;;;;;;8.73;100.00;99041.88;5003026;28;20008;-86
2023/07/29 09:55:46;;;;;;;;;;;;;;;8.71;100.00;99049.88;5004454;28;20382;-90
2023/07/29 09:58:12;;;;;;;;;;;;;;;8.69;100.00;99051.72;5002799;28;19917;-86
2023/07/29 10:00:38;;;;;;;;;;;;;;;8.55;100.00;99059.41;5004116;28;20416;-85
2023/07/29 10:03:04;;;;;;;;;;;;;;;8.56;100.00;99062.94;5003756;28;19925;-86
2023/07/29 10:05:29;;;;;;;;;;;;;;;8.50;100.00;99061.44;5003996;28;19918;-86
2023/07/29 10:07:55;;;;;;;;;;;;;;;8.52;100.00;99062.19;5002744;28;19914;-86
2023/07/29 10:10:20;;;;;;;;;;;;;;;8.49;100.00;99063.22;5003691;28;19922;-84
2023/07/29 10:12:46;;;;;;;;;;;;;;;8.64;100.00;99064.28;5003936;28;19980;-86
2023/07/29 10:15:11;;;;;;;;;;;;;;;8.67;100.00;99055.38;5004247;28;20369;-86
2023/07/29 10:17:38;;;;;;;;;;;;;;;8.59;100.00;99066.28;5003787;28;19922;-85
2023/07/29 10:20:04;;;;;;;;;;;;;;;8.61;100.00;99053.00;5002132;28;19936;-85
2023/07/29 10:22:33;;;;;;;;;;;;;;;8.56;100.00;99055.88;5002633;28;19957;-86
2023/07/29 10:25:02;;;;;;;;;;;;;;;8.53;100.00;99056.84;5018958;28;20016;-85
2023/07/29 10:27:28;;;;;;;;;;;;;;;8.53;100.00;99050.72;5003117;28;19922;-86
2023/07/29 10:29:55;;;;;;;;;;;;;;;8.48;100.00;99050.09;5019135;28;19968;-87
2023/07/29 10:32:23;;;;;;;;;;;;;;;8.65;100.00;99044.03;5003650;28;19918;-85
2023/07/29 10:34:49;;;;;;;;;;;;;;;8.58;100.00;99043.44;5018544;28;20423;-86
2023/07/29 10:37:14;;;;;;;;;;;;;;;8.43;100.00;99034.44;5017016;28;19994;-85
2023/07/29 10:39:40;;;;;;;;;;;;;;;8.49;100.00;99036.81;5001842;28;19952;-84
2023/07/29 10:42:05;;;;;;;;;;;;;;;8.58;100.00;99037.31;5003732;28;19928;-86
2023/07/29 10:44:43;;;;;;;;;;;;;;;8.61;100.00;99043.31;5010347;28;20012;-86
2023/07/29 10:47:14;;;;;;;;;;;;;;;8.39;100.00;99045.19;5003156;28;20335;-85
2023/07/29 10:49:43;;;;;;;;;;;;;;;8.44;100.00;99045.84;5003258;28;19918;-85
2023/07/29 10:52:12;;;;;;;;;;;;;;;8.41;100.00;99048.59;5000405;28;20376;-87
2023/07/29 10:54:47;;;;;;;;;;;;;;;8.53;100.00;99046.28;5003213;28;20377;-86
2023/07/29 10:57:24;;;;;;;;;;;;;;;8.39;100.00;99042.56;5003660;28;19917;-86
2023/07/29 10:59:55;;;;;;;;;;;;;;;8.35;100.00;99037.41;5002603;28;19964;-86
2023/07/29 11:02:20;;;;;;;;;;;;;;;8.33;100.00;99041.91;5004641;28;19921;-86
2023/07/29 11:04:49;;;;;;;;;;;;;;;8.29;100.00;99042.97;5002674;28;20009;-86
2023/07/29 11:07:15;;;;;;;;;;;;;;;8.22;100.00;99043.31;5002253;28;20008;-86
2023/07/29 11:09:41;;;;;;;;;;;;;;;8.34;100.00;99040.13;5002938;28;20012;-86
2023/07/29 11:12:25;;;;;;;;;;;;;;;8.33;100.00;99041.06;4993008;28;19961;-86
2023/07/29 11:14:50;;;;;;;;;;;;;;;8.36;100.00;99043.56;5018275;28;19921;-86
2023/07/29 11:17:16;;;;;;;;;;;;;;;8.30;100.00;99049.13;5002494;28;20273;-90
2023/07/29 11:19:42;;;;;;;;;;;;;;;8.38;100.00;99052.25;5017872;28;20335;-85
2023/07/29 11:22:10;;;;;;;;;;;;;;;8.39;100.00;99039.91;5002259;28;19972;-86
2023/07/29 11:24:35;;;;;;;;;;;;;;;8.35;100.00;99033.91;5001741;28;19917;-88
2023/07/29 11:27:00;;;;;;;;;;;;;;;8.30;100.00;99042.03;5002538;28;20004;-86
2023/07/29 11:29:26;;;;;;;;;;;;;;;8.37;100.00;99034.69;5002791;28;19971;-86
2023/07/29 11:31:51;;;;;;;;;;;;;;;8.37;100.00;99034.69;5002667;28;19929;-86
2023/07/29 11:34:20;;;;;;;;;;;;;;;8.34;100.00;99029.56;5002346;28;20351;-86
2023/07/29 11:36:45;;;;;;;;;;;;;;;8.45;100.00;99037.88;5001742;28;20364;-86
2023/07/29 11:39:11;;;;;;;;;;;;;;;8.43;100.00;99028.28;5017131;28;19922;-86
2023/07/29 11:41:36;;;;;;;;;;;;;;;8.38;100.00;99031.16;5001864;28;19968;-86
2023/07/29 11:44:02;;;;;;;;;;;;;;;8.40;100.00;99029.28;5000869;28;19960;-85
2023/07/29 11:46:27;;;;;;;;;;;;;;;8.35;100.00;99028.63;5005228;28;19929;-86
2023/07/29 11:48:53;;;;;;;;;;;;;;;8.39;100.00;99032.84;5002100;28;20004;-85
2023/07/29 11:51:19;;;;;;;;;;;;;;;8.39;100.00;99032.84;5008443;28;20015;-86
2023/07/29 11:53:44;;;;;;;;;;;;;;;8.49;100.00;99028.91;5000719;28;19949;-86
2023/07/29 11:56:10;;;;;;;;;;;;;;;8.89;100.00;99037.56;5002735;28;19933;-86
2023/07/29 11:58:36;;;;;;;;;;;;;;;9.25;100.00;99039.38;5002219;28;20391;-86
2023/07/29 12:01:03;;;;;;;;;;;;;;;9.43;100.00;99039.41;5001883;28;19921;-86
2023/07/29 12:03:29;;;;;;;;;;;;;;;9.31;100.00;99047.94;5003012;28;20372;-86
2023/07/29 12:05:54;;;;;;;;;;;;;;;8.96;100.00;99045.22;5001961;28;19940;-85
2023/07/29 12:08:19;;;;;;;;;;;;;;;8.75;100.00;99044.47;5001184;28;19917;-85
2023/07/29 12:10:45;;;;;;;;;;;;;;;8.65;100.00;99033.47;5004148;28;20040;-86
2023/07/29 12:13:10;;;;;;;;;;;;;;;8.62;100.00;99046.81;5006590;28;19952;-87
2023/07/29 12:15:37;;;;;;;;;;;;;;;8.58;100.00;99042.59;5006022;28;20392;-85
2023/07/29 12:18:03;;;;;;;;;;;;;;;8.56;100.00;99044.47;5005792;28;19975;-86
2023/07/29 12:20:29;;;;;;;;;;;;;;;8.58;100.00;99042.59;5005894;28;19918;-86
2023/07/29 12:23:01;;;;;;;;;;;;;;;8.45;100.00;99048.44;5004699;28;19922;-85
2023/07/29 12:25:26;;;;;;;;;;;;;;;8.48;100.00;99045.66;5006036;28;19953;-87
2023/07/29 12:27:51;;;;;;;;;;;;;;;8.52;100.00;99041.06;5006303;28;20387;-85
2023/07/29 12:30:20;;;;;;;;;;;;;;;8.42;100.00;99037.97;5021180;28;19922;-85
2023/07/29 12:32:46;;;;;;;;;;;;;;;8.31;100.00;99040.25;5004156;28;19976;-85
2023/07/29 12:35:11;;;;;;;;;;;;;;;8.31;100.00;99033.22;5006063;28;19917;-89
2023/07/29 12:37:38;;;;;;;;;;;;;;;8.33;100.00;99034.00;5004271;28;19922;-86
2023/07/29 12:40:04;;;;;;;;;;;;;;;8.27;100.00;99028.13;5020347;28;20906;-86
2023/07/29 12:42:29;;;;;;;;;;;;;;;8.27;100.00;99020.22;5012509;28;19917;-85
2023/07/29 12:44:54;;;;;;;;;;;;;;;8.27;100.00;99017.59;5020352;28;19922;-87
2023/07/29 12:47:20;;;;;;;;;;;;;;;8.26;100.00;99003.50;5004194;28;20361;-84
2023/07/29 12:49:45;;;;;;;;;;;;;;;8.40;100.00;98999.41;5020843;28;19975;-86
2023/07/29 12:52:10;;;;;;;;;;;;;;;8.34;100.00;99008.44;5000894;28;19972;-85
2023/07/29 12:54:40;;;;;;;;;;;;;;;8.28;100.00;99014.00;5003717;28;19928;-89
2023/07/29 12:57:05;;;;;;;;;;;;;;;8.30;100.00;99002.47;5006232;28;20489;-88
2023/07/29 12:59:31;;;;;;;;;;;;;;;8.45;100.00;99011.47;5020875;28;19918;-89
2023/07/29 13:01:56;;;;;;;;;;;;;;;8.32;100.00;99005.03;5003524;28;19917;-86
2023/07/29 13:04:21;;;;;;;;;;;;;;;8.27;100.00;99013.16;5006703;28;20424;-86
2023/07/29 13:06:46;;;;;;;;;;;;;;;8.28;100.00;99008.72;5003760;28;20381;-86
2023/07/29 13:09:12;;;;;;;;;;;;;;;8.22;100.00;99001.97;5003826;28;19917;-86
2023/07/29 13:11:37;;;;;;;;;;;;;;;8.36;100.00;99012.75;5004137;28;19921;-86
2023/07/29 13:14:02;;;;;;;;;;;;;;;8.35;100.00;99010.16;5004579;28;19917;-87
2023/07/29 13:16:28;;;;;;;;;;;;;;;8.30;100.00;99006.88;5020776;28;19961;-86
2023/07/29 13:18:53;;;;;;;;;;;;;;;8.34;100.00;99009.31;5006127;28;19963;-88
2023/07/29 13:21:18;;;;;;;;;;;;;;;8.30;100.00;99012.16;5001663;28;19921;-86
2023/07/29 13:23:43;;;;;;;;;;;;;;;8.28;100.00;99006.97;5003794;28;19925;-86
2023/07/29 13:26:09;;;;;;;;;;;;;;;8.31;100.00;99003.31;5005195;28;19914;-87
2023/07/29 13:28:34;;;;;;;;;;;;;;;8.35;100.00;98999.59;5004659;28;19925;-86
2023/07/29 13:30:59;;;;;;;;;;;;;;;8.27;100.00;99004.38;5004322;28;19945;-91
2023/07/29 13:33:25;;;;;;;;;;;;;;;8.25;100.00;98995.66;5003569;28;19913;-87
2023/07/29 13:35:50;;;;;;;;;;;;;;;8.20;100.00;99003.81;5003229;28;20368;-86
2023/07/29 13:38:16;;;;;;;;;;;;;;;8.24;100.00;99001.88;5002992;28;20423;-86
2023/07/29 13:40:41;;;;;;;;;;;;;;;8.32;100.00;98990.03;5004097;28;19929;-86
2023/07/29 13:43:07;;;;;;;;;;;;;;;8.42;100.00;98990.47;5004708;28;20320;-85
2023/07/29 13:45:33;;;;;;;;;;;;;;;8.37;100.00;98995.94;5004683;28;19922;-86
2023/07/29 13:47:58;;;;;;;;;;;;;;;8.25;100.00;99000.94;5005364;28;19929;-86
2023/07/29 13:50:23;;;;;;;;;;;;;;;8.17;100.00;98996.88;5004401;28;19921;-86
2023/07/29 13:52:49;;;;;;;;;;;;;;;8.24;100.00;99008.00;5003272;28;20012;-85
2023/07/29 13:55:14;;;;;;;;;;;;;;;8.18;100.00;98988.06;5019296;28;19968;-86
2023/07/29 13:57:39;;;;;;;;;;;;;;;8.17;100.00;98998.69;5018942;28;19921;-85
2023/07/29 14:00:05;;;;;;;;;;;;;;;8.18;100.00;98998.59;5019483;28;19921;-85
2023/07/29 14:02:31;;;;;;;;;;;;;;;8.25;100.00;98988.63;5004352;28;20111;-86
2023/07/29 14:04:56;;;;;;;;;;;;;;;8.15;100.00;99004.03;5001644;28;19925;-85
2023/07/29 14:07:21;;;;;;;;;;;;;;;8.16;100.00;98991.69;5017794;28;20289;-85
2023/07/29 14:09:47;;;;;;;;;;;;;;;8.09;100.00;98999.00;5002674;28;19924;-85
2023/07/29 14:12:14;;;;;;;;;;;;;;;8.19;100.00;99000.31;5004211;28;20014;-86
2023/07/29 14:14:39;;;;;;;;;;;;;;;8.15;100.00;99001.38;5003487;28;20296;-85
2023/07/29 14:17:05;;;;;;;;;;;;;;;8.16;100.00;99004.88;5000592;28;19918;-86
2023/07/29 14:19:31;;;;;;;;;;;;;;;8.15;100.00;98998.75;5004195;28;19918;-86
2023/07/29 14:21:56;;;;;;;;;;;;;;;8.13;100.00;99005.84;5000729;28;20332;-87
2023/07/29 14:24:22;;;;;;;;;;;;;;;8.21;100.00;99005.50;5018628;28;19925;-86
2023/07/29 14:26:47;;;;;;;;;;;;;;;8.29;100.00;99007.81;5003432;28;20373;-86
2023/07/29 14:29:13;;;;;;;;;;;;;;;8.24;100.00;99009.81;5000362;28;19928;-93
2023/07/29 14:31:38;;;;;;;;;;;;;;;8.18;100.00;99003.88;5002669;28;19917;-86
2023/07/29 14:34:03;;;;;;;;;;;;;;;8.10;100.00;98995.44;5001855;28;19926;-90
2023/07/29 14:36:30;;;;;;;;;;;;;;;8.18;100.00;99003.88;5002268;28;19969;-86
2023/07/29 14:38:55;;;;;;;;;;;;;;;8.26;100.00;98994.75;5001953;28;19918;-86
2023/07/29 14:41:20;;;;;;;;;;;;;;;8.25;100.00;98996.53;5018255;28;19928;-86
2023/07/29 14:43:45;;;;;;;;;;;;;;;8.18;100.00;98998.59;5003371;28;19922;-85
2023/07/29 14:46:11;;;;;;;;;;;;;;;8.30;100.00;98991.06;5003928;28;20441;-85
2023/07/29 14:48:36;;;;;;;;;;;;;;;8.35;100.00;98992.53;5001828;28;20590;-87
2023/07/29 14:51:01;;;;;;;;;;;;;;;8.18;100.00;99001.25;5003807;28;19917;-86
2023/07/29 14:53:26;;;;;;;;;;;;;;;8.33;100.00;99004.09;5001017;28;19922;-86
2023/07/29 14:55:52;;;;;;;;;;;;;;;8.37;100.00;99000.38;5018665;28;19922;-85
2023/07/29 14:58:17;;;;;;;;;;;;;;;8.16;100.00;99003.06;5003095;28;19921;-86
2023/07/29 15:00:45;;;;;;;;;;;;;;;8.29;100.00;98995.44;5003338;28;19924;-87
2023/07/29 15:03:10;;;;;;;;;;;;;;;8.28;100.00;98991.13;5002833;28;19922;-86
2023/07/29 15:05:35;;;;;;;;;;;;;;;8.25;100.00;98990.38;5002627;28;19929;-88
2023/07/29 15:08:01;;;;;;;;;;;;;;;8.28;100.00;98995.53;5003388;28;19952;-87
2023/07/29 15:10:26;;;;;;;;;;;;;;;8.28;100.00;99001.69;5004268;28;20304;-90
2023/07/29 15:12:51;;;;;;;;;;;;;;;8.33;100.00;99001.47;5001806;28;20052;-86
2023/07/29 15:15:17;;;;;;;;;;;;;;;8.33;100.00;99004.09;5003445;28;19976;-88
2023/07/29 15:17:45;;;;;;;;;;;;;;;8.28;100.00;98999.03;5005485;28;20391;-86
2023/07/29 15:20:11;;;;;;;;;;;;;;;8.28;100.00;98993.75;5002909;28;19918;-89
2023/07/29 15:22:36;;;;;;;;;;;;;;;8.33;100.00;98996.19;5001566;28;20021;-85
2023/07/29 15:25:02;;;;;;;;;;;;;;;8.21;100.00;98996.75;5003729;28;19921;-86
2023/07/29 15:27:28;;;;;;;;;;;;;;;8.22;100.00;98995.81;5008134;28;19968;-86
2023/07/29 15:29:53;;;;;;;;;;;;;;;8.15;100.00;98997.88;5002450;28;20016;-86
2023/07/29 15:32:18;;;;;;;;;;;;;;;8.21;100.00;99005.50;5002743;28;20471;-86
2023/07/29 15:34:44;;;;;;;;;;;;;;;8.29;100.00;98995.44;5001211;28;19939;-85
2023/07/29 15:37:09;;;;;;;;;;;;;;;8.22;100.00;98998.44;5001337;28;19922;-86
2023/07/29 15:39:34;;;;;;;;;;;;;;;8.09;100.00;98991.09;5004328;28;19921;-86
2023/07/29 15:41:59;;;;;;;;;;;;;;;8.13;100.00;98999.72;5001330;28;20760;-86
2023/07/29 15:44:25;;;;;;;;;;;;;;;8.29;100.00;98998.09;5003429;28;20280;-86
2023/07/29 15:46:51;;;;;;;;;;;;;;;8.18;100.00;98995.97;5017647;28;19914;-86
2023/07/29 15:49:17;;;;;;;;;;;;;;;8.17;100.00;98996.03;5017876;28;19917;-86
2023/07/29 15:51:42;;;;;;;;;;;;;;;8.24;100.00;98986.91;5001101;28;19964;-87
2023/07/29 15:54:07;;;;;;;;;;;;;;;8.23;100.00;98992.25;5002337;28;19913;-86
2023/07/29 15:56:35;;;;;;;;;;;;;;;8.21;100.00;98992.31;5003395;28;19922;-86
2023/07/29 15:59:01;;;;;;;;;;;;;;;8.22;100.00;98990.53;5001960;28;20339;-85
2023/07/29 16:01:26;;;;;;;;;;;;;;;8.15;100.00;98988.19;5017866;28;20008;-86
2023/07/29 16:03:51;;;;;;;;;;;;;;;8.19;100.00;98994.19;5001510;28;19934;-86
2023/07/29 16:06:17;;;;;;;;;;;;;;;8.13;100.00;98991.81;5002593;28;20297;-86
2023/07/29 16:08:42;;;;;;;;;;;;;;;8.26;100.00;98997.38;5018180;28;20288;-87
2023/07/29 16:11:07;;;;;;;;;;;;;;;8.24;100.00;98986.06;5001555;28;19914;-86
2023/07/29 16:13:32;;;;;;;;;;;;;;;8.24;100.00;98993.97;5017179;28;19922;-86
2023/07/29 16:15:58;;;;;;;;;;;;;;;8.15;100.00;98989.94;5002391;28;19937;-86
2023/07/29 16:18:24;;;;;;;;;;;;;;;8.04;100.00;98987.81;5001454;28;20443;-86
2023/07/29 16:20:49;;;;;;;;;;;;;;;8.10;100.00;98990.16;5004679;28;19921;-85
2023/07/29 16:23:15;;;;;;;;;;;;;;;8.08;100.00;98992.03;5000341;28;19925;-87
2023/07/29 16:25:40;;;;;;;;;;;;;;;8.04;100.00;98993.09;5001169;28;19933;-86
2023/07/29 16:28:05;;;;;;;;;;;;;;;8.05;100.00;98996.59;5003093;28;20372;-86
2023/07/29 16:30:31;;;;;;;;;;;;;;;8.06;100.00;98996.53;5005652;28;19932;-86
2023/07/29 16:32:56;;;;;;;;;;;;;;;8.10;100.00;98995.44;5003538;28;19976;-86
2023/07/29 16:35:21;;;;;;;;;;;;;;;8.11;100.00;98994.53;5018754;28;19995;-86
2023/07/29 16:37:47;;;;;;;;;;;;;;;8.11;100.00;98986.59;4999920;28;19925;-86
2023/07/29 16:40:12;;;;;;;;;;;;;;;8.25;100.00;98996.53;5001540;28;19969;-85
2023/07/29 16:42:37;;;;;;;;;;;;;;;8.16;100.00;98989.03;5003543;28;19928;-86
2023/07/29 16:45:03;;;;;;;;;;;;;;;8.16;100.00;98989.88;5004252;28;20420;-86
2023/07/29 16:47:29;;;;;;;;;;;;;;;8.09;100.00;98983.19;5009939;28;19918;-89
2023/07/29 16:49:54;;;;;;;;;;;;;;;7.98;100.00;98990.72;5002166;28;19933;-85
2023/07/29 16:52:19;;;;;;;;;;;;;;;8.04;100.00;98990.47;5000185;28;19924;-85
2023/07/29 16:54:44;;;;;;;;;;;;;;;8.02;100.00;98981.75;5002855;28;19976;-86
2023/07/29 16:57:10;;;;;;;;;;;;;;;8.14;100.00;98981.19;5003191;28;20272;-88
2023/07/29 16:59:35;;;;;;;;;;;;;;;8.25;100.00;98979.81;5004843;28;20343;-89
2023/07/29 17:02:01;;;;;;;;;;;;;;;8.14;100.00;98983.81;5006157;28;19949;-90
2023/07/29 17:04:26;;;;;;;;;;;;;;;8.25;100.00;98979.81;5007279;28;20474;-90
2023/07/29 17:06:52;;;;;;;;;;;;;;;8.19;100.00;98976.56;5005079;28;19980;-86
2023/07/29 17:09:18;;;;;;;;;;;;;;;8.08;100.00;98981.47;5003188;28;19926;-86
2023/07/29 17:11:43;;;;;;;;;;;;;;;7.98;100.00;98980.19;5006542;28;20259;-86
2023/07/29 17:14:09;;;;;;;;;;;;;;;8.01;100.00;98987.97;5006182;28;19972;-86
2023/07/29 17:16:34;;;;;;;;;;;;;;;8.12;100.00;98992.72;5020929;28;19922;-86
2023/07/29 17:19:02;;;;;;;;;;;;;;;8.08;100.00;98984.09;5019906;28;20326;-87
2023/07/29 17:21:28;;;;;;;;;;;;;;;8.08;100.00;98997.28;5004977;28;20195;-89
2023/07/29 17:23:53;;;;;;;;;;;;;;;8.09;100.00;98999.00;5005641;28;20489;-83
2023/07/29 17:26:18;;;;;;;;;;;;;;;8.13;100.00;98999.72;5007132;28;20357;-85
2023/07/29 17:28:46;;;;;;;;;;;;;;;8.07;100.00;98995.56;5004858;28;19957;-91
2023/07/29 17:31:11;;;;;;;;;;;;;;;8.07;100.00;99003.47;5003984;28;19963;-87
2023/07/29 17:33:36;;;;;;;;;;;;;;;8.13;100.00;98995.28;5003018;28;20020;-89
2023/07/29 17:36:02;;;;;;;;;;;;;;;8.14;100.00;98990.91;5005261;28;19926;-86
2023/07/29 17:38:27;;;;;;;;;;;;;;;8.27;100.00;98992.03;5003372;28;20400;-88
2023/07/29 17:40:55;;;;;;;;;;;;;;;8.84;100.00;98997.31;5004423;28;19933;-92
2023/07/29 17:43:21;;;;;;;;;;;;;;;9.18;100.00;98992.19;5019771;28;19964;-87
2023/07/29 17:45:46;;;;;;;;;;;;;;;9.39;100.00;98998.16;5002302;28;19925;-87
2023/07/29 17:48:11;;;;;;;;;;;;;;;9.13;100.00;99002.13;5003763;28;19921;-85
2023/07/29 17:50:36;;;;;;;;;;;;;;;8.65;100.00;99004.41;5004944;28;19928;-88
2023/07/29 17:53:02;;;;;;;;;;;;;;;8.46;100.00;99000.00;5002909;28;20369;-85
2023/07/29 17:55:27;;;;;;;;;;;;;;;8.40;100.00;99002.88;5004040;28;19933;-85
2023/07/29 17:57:52;;;;;;;;;;;;;;;8.48;100.00;99000.78;5019348;28;19944;-85
2023/07/29 18:00:18;;;;;;;;;;;;;;;8.41;100.00;98999.31;5005762;28;19972;-87
2023/07/29 18:02:43;;;;;;;;;;;;;;;8.25;100.00;99001.81;5004477;28;20331;-86
2023/07/29 18:05:08;;;;;;;;;;;;;;;8.23;100.00;99005.44;5018474;28;19972;-90
2023/07/29 18:07:34;;;;;;;;;;;;;;;8.24;100.00;99001.88;5001973;28;19932;-86
2023/07/29 18:09:59;;;;;;;;;;;;;;;8.22;100.00;99007.22;5003776;28;19922;-88
2023/07/29 18:12:24;;;;;;;;;;;;;;;8.35;100.00;99004.88;5003034;28;19948;-88
2023/07/29 18:14:50;;;;;;;;;;;;;;;8.25;100.00;99008.84;5004147;28;20419;-85